sensor_id;sensor_type;location;lat;lon;timestamp;temperature;humidity
12874;DHT22;6505;51.114;13.128;2023-02-28T00:01:40;8.80;52.90
12874;DHT22;6505;51.114;13.128;2023-02-28T00:04:08;8.90;52.90
12874;DHT22;6505;51.114;13.128;2023-02-28T00:06:36;8.90;52.80
12874;DHT22;6505;51.114;13.128;2023-02-28T00:09:05;8.80;52.70
12874;DHT22;6505;51.114;13.128;2023-02-28T00:11:33;8.90;52.50
12874;DHT22;6505;51.114;13.128;2023-02-28T00:14:01;8.90;52.40
12874;DHT22;6505;51.114;13.128;2023-02-28T00:16:29;8.80;52.30
12874;DHT22;6505;51.114;13.128;2023-02-28T00:18:57;8.80;52.20
12874;DHT22;6505;51.114;13.128;2023-02-28T00:21:25;8.90;52.30
12874;DHT22;6505;51.114;13.128;2023-02-28T00:23:54;8.80;52.00
12874;DHT22;6505;51.114;13.128;2023-02-28T00:26:23;8.80;52.10
12874;DHT22;6505;51.114;13.128;2023-02-28T00:28:51;8.80;52.10
12874;DHT22;6505;51.114;13.128;2023-02-28T00:31:21;8.80;52.30
12874;DHT22;6505;51.114;13.128;2023-02-28T00:33:49;8.80;52.20
12874;DHT22;6505;51.114;13.128;2023-02-28T00:36:20;8.80;52.20
12874;DHT22;6505;51.114;13.128;2023-02-28T00:38:48;8.80;52.20
12874;DHT22;6505;51.114;13.128;2023-02-28T00:41:15;8.80;52.20
12874;DHT22;6505;51.114;13.128;2023-02-28T00:43:45;8.80;52.20
12874;DHT22;6505;51.114;13.128;2023-02-28T00:46:13;8.80;52.30
12874;DHT22;6505;51.114;13.128;2023-02-28T00:48:40;8.80;52.30
12874;DHT22;6505;51.114;13.128;2023-02-28T00:51:08;8.80;52.20
12874;DHT22;6505;51.114;13.128;2023-02-28T00:53:36;8.80;52.10
12874;DHT22;6505;51.114;13.128;2023-02-28T00:56:05;8.80;52.20
12874;DHT22;6505;51.114;13.128;2023-02-28T00:58:33;8.80;52.30
12874;DHT22;6505;51.114;13.128;2023-02-28T01:01:03;8.80;52.10
12874;DHT22;6505;51.114;13.128;2023-02-28T01:03:31;8.80;52.20
12874;DHT22;6505;51.114;13.128;2023-02-28T01:05:59;8.80;52.00
12874;DHT22;6505;51.114;13.128;2023-02-28T01:08:27;8.80;52.00
12874;DHT22;6505;51.114;13.128;2023-02-28T01:10:55;8.80;51.90
12874;DHT22;6505;51.114;13.128;2023-02-28T01:13:23;8.80;52.00
12874;DHT22;6505;51.114;13.128;2023-02-28T01:15:54;8.80;52.00
12874;DHT22;6505;51.114;13.128;2023-02-28T01:18:25;8.70;52.00
12874;DHT22;6505;51.114;13.128;2023-02-28T01:20:53;8.80;51.80
12874;DHT22;6505;51.114;13.128;2023-02-28T01:23:22;8.80;51.90
12874;DHT22;6505;51.114;13.128;2023-02-28T01:25:51;8.80;51.90
12874;DHT22;6505;51.114;13.128;2023-02-28T01:28:19;8.80;51.80
12874;DHT22;6505;51.114;13.128;2023-02-28T01:30:48;8.80;51.80
12874;DHT22;6505;51.114;13.128;2023-02-28T01:33:16;8.80;51.90
12874;DHT22;6505;51.114;13.128;2023-02-28T01:35:46;8.80;51.60
12874;DHT22;6505;51.114;13.128;2023-02-28T01:38:14;8.80;51.50
12874;DHT22;6505;51.114;13.128;2023-02-28T01:40:49;8.80;51.50
12874;DHT22;6505;51.114;13.128;2023-02-28T01:43:21;8.80;51.50
12874;DHT22;6505;51.114;13.128;2023-02-28T01:45:55;8.80;51.40
12874;DHT22;6505;51.114;13.128;2023-02-28T01:48:27;8.80;51.20
12874;DHT22;6505;51.114;13.128;2023-02-28T01:51:03;8.80;51.30
12874;DHT22;6505;51.114;13.128;2023-02-28T01:53:39;8.80;51.30
12874;DHT22;6505;51.114;13.128;2023-02-28T01:56:12;8.80;51.30
12874;DHT22;6505;51.114;13.128;2023-02-28T01:58:48;8.80;51.40
12874;DHT22;6505;51.114;13.128;2023-02-28T02:01:18;8.80;51.40
12874;DHT22;6505;51.114;13.128;2023-02-28T02:03:49;8.80;51.40
12874;DHT22;6505;51.114;13.128;2023-02-28T02:06:29;8.80;51.40
12874;DHT22;6505;51.114;13.128;2023-02-28T02:09:09;8.80;51.40
12874;DHT22;6505;51.114;13.128;2023-02-28T02:11:39;8.80;51.40
12874;DHT22;6505;51.114;13.128;2023-02-28T02:14:25;8.80;51.40
12874;DHT22;6505;51.114;13.128;2023-02-28T02:17:19;8.80;51.40
12874;DHT22;6505;51.114;13.128;2023-02-28T02:23:39;8.80;51.40
12874;DHT22;6505;51.114;13.128;2023-02-28T02:27:02;8.80;51.40
12874;DHT22;6505;51.114;13.128;2023-02-28T02:29:59;8.80;51.30
12874;DHT22;6505;51.114;13.128;2023-02-28T02:33:22;8.80;51.30
12874;DHT22;6505;51.114;13.128;2023-02-28T02:36:19;8.70;51.20
12874;DHT22;6505;51.114;13.128;2023-02-28T02:38:54;8.70;51.20
12874;DHT22;6505;51.114;13.128;2023-02-28T02:41:33;8.80;51.20
12874;DHT22;6505;51.114;13.128;2023-02-28T02:44:11;8.70;51.10
12874;DHT22;6505;51.114;13.128;2023-02-28T02:46:47;8.70;51.10
12874;DHT22;6505;51.114;13.128;2023-02-28T02:49:21;8.70;51.10
12874;DHT22;6505;51.114;13.128;2023-02-28T02:51:54;8.70;51.10
12874;DHT22;6505;51.114;13.128;2023-02-28T02:54:25;8.70;51.10
12874;DHT22;6505;51.114;13.128;2023-02-28T02:56:58;8.70;51.00
12874;DHT22;6505;51.114;13.128;2023-02-28T02:59:30;8.70;51.00
12874;DHT22;6505;51.114;13.128;2023-02-28T03:02:01;8.70;50.90
12874;DHT22;6505;51.114;13.128;2023-02-28T03:04:34;8.70;51.00
12874;DHT22;6505;51.114;13.128;2023-02-28T03:07:09;8.60;51.00
12874;DHT22;6505;51.114;13.128;2023-02-28T03:09:37;8.70;51.00
12874;DHT22;6505;51.114;13.128;2023-02-28T03:12:09;8.70;51.00
12874;DHT22;6505;51.114;13.128;2023-02-28T03:14:53;8.70;51.20
12874;DHT22;6505;51.114;13.128;2023-02-28T03:17:44;8.60;51.10
12874;DHT22;6505;51.114;13.128;2023-02-28T03:20:31;8.70;51.30
12874;DHT22;6505;51.114;13.128;2023-02-28T03:23:13;8.70;51.30
12874;DHT22;6505;51.114;13.128;2023-02-28T03:25:56;8.70;51.30
12874;DHT22;6505;51.114;13.128;2023-02-28T03:28:32;8.70;51.30
12874;DHT22;6505;51.114;13.128;2023-02-28T03:31:10;8.60;51.30
12874;DHT22;6505;51.114;13.128;2023-02-28T03:33:46;8.70;51.40
12874;DHT22;6505;51.114;13.128;2023-02-28T03:36:24;8.70;51.40
12874;DHT22;6505;51.114;13.128;2023-02-28T03:38:59;8.70;51.20
12874;DHT22;6505;51.114;13.128;2023-02-28T03:41:32;8.70;51.20
12874;DHT22;6505;51.114;13.128;2023-02-28T03:44:09;8.60;50.90
12874;DHT22;6505;51.114;13.128;2023-02-28T03:46:45;8.60;51.00
12874;DHT22;6505;51.114;13.128;2023-02-28T03:49:21;8.60;50.90
12874;DHT22;6505;51.114;13.128;2023-02-28T03:51:51;8.60;51.00
12874;DHT22;6505;51.114;13.128;2023-02-28T03:54:27;8.70;51.20
12874;DHT22;6505;51.114;13.128;2023-02-28T03:57:02;8.60;51.00
12874;DHT22;6505;51.114;13.128;2023-02-28T03:59:38;8.60;50.90
12874;DHT22;6505;51.114;13.128;2023-02-28T04:02:09;8.60;51.00
12874;DHT22;6505;51.114;13.128;2023-02-28T04:04:37;8.60;51.00
12874;DHT22;6505;51.114;13.128;2023-02-28T04:07:15;8.60;50.80
12874;DHT22;6505;51.114;13.128;2023-02-28T04:09:44;8.60;51.00
12874;DHT22;6505;51.114;13.128;2023-02-28T04:12:12;8.50;50.70
12874;DHT22;6505;51.114;13.128;2023-02-28T04:14:40;8.60;50.70
12874;DHT22;6505;51.114;13.128;2023-02-28T04:17:08;8.60;50.70
12874;DHT22;6505;51.114;13.128;2023-02-28T04:19:36;8.50;50.70
12874;DHT22;6505;51.114;13.128;2023-02-28T04:22:04;8.50;50.70
12874;DHT22;6505;51.114;13.128;2023-02-28T04:24:32;8.50;50.60
12874;DHT22;6505;51.114;13.128;2023-02-28T04:27:02;8.60;50.60
12874;DHT22;6505;51.114;13.128;2023-02-28T04:29:31;8.60;50.70
12874;DHT22;6505;51.114;13.128;2023-02-28T04:32:00;8.60;50.80
12874;DHT22;6505;51.114;13.128;2023-02-28T04:34:30;8.50;50.60
12874;DHT22;6505;51.114;13.128;2023-02-28T04:36:59;8.50;50.50
12874;DHT22;6505;51.114;13.128;2023-02-28T04:39:40;8.50;50.40
12874;DHT22;6505;51.114;13.128;2023-02-28T04:42:10;8.50;50.60
12874;DHT22;6505;51.114;13.128;2023-02-28T04:44:38;8.50;50.50
12874;DHT22;6505;51.114;13.128;2023-02-28T04:47:06;8.50;50.30
12874;DHT22;6505;51.114;13.128;2023-02-28T04:49:34;8.50;50.40
12874;DHT22;6505;51.114;13.128;2023-02-28T04:52:03;8.50;49.80
12874;DHT22;6505;51.114;13.128;2023-02-28T04:54:30;8.50;50.40
12874;DHT22;6505;51.114;13.128;2023-02-28T04:56:58;8.50;50.10
12874;DHT22;6505;51.114;13.128;2023-02-28T04:59:29;8.50;50.40
12874;DHT22;6505;51.114;13.128;2023-02-28T05:01:57;8.50;50.40
12874;DHT22;6505;51.114;13.128;2023-02-28T05:04:25;8.50;50.40
12874;DHT22;6505;51.114;13.128;2023-02-28T05:06:53;8.50;50.40
12874;DHT22;6505;51.114;13.128;2023-02-28T05:09:21;8.40;50.30
12874;DHT22;6505;51.114;13.128;2023-02-28T05:11:49;8.40;50.20
12874;DHT22;6505;51.114;13.128;2023-02-28T05:14:17;8.40;50.20
12874;DHT22;6505;51.114;13.128;2023-02-28T05:16:46;8.40;50.10
12874;DHT22;6505;51.114;13.128;2023-02-28T05:19:14;8.40;50.10
12874;DHT22;6505;51.114;13.128;2023-02-28T05:21:49;8.40;50.10
12874;DHT22;6505;51.114;13.128;2023-02-28T05:24:19;8.40;50.00
12874;DHT22;6505;51.114;13.128;2023-02-28T05:26:50;8.40;50.00
12874;DHT22;6505;51.114;13.128;2023-02-28T05:29:20;8.40;50.00
12874;DHT22;6505;51.114;13.128;2023-02-28T05:31:49;8.30;49.90
12874;DHT22;6505;51.114;13.128;2023-02-28T05:34:17;8.40;49.80
12874;DHT22;6505;51.114;13.128;2023-02-28T05:36:46;8.40;49.80
12874;DHT22;6505;51.114;13.128;2023-02-28T05:39:14;8.40;49.70
12874;DHT22;6505;51.114;13.128;2023-02-28T05:41:42;8.30;49.70
12874;DHT22;6505;51.114;13.128;2023-02-28T05:44:11;8.30;49.90
12874;DHT22;6505;51.114;13.128;2023-02-28T05:46:39;8.30;49.80
12874;DHT22;6505;51.114;13.128;2023-02-28T05:49:09;8.30;49.60
12874;DHT22;6505;51.114;13.128;2023-02-28T05:51:37;8.30;49.50
12874;DHT22;6505;51.114;13.128;2023-02-28T05:54:07;8.30;49.70
12874;DHT22;6505;51.114;13.128;2023-02-28T05:56:38;8.20;49.60
12874;DHT22;6505;51.114;13.128;2023-02-28T05:59:07;8.30;49.70
12874;DHT22;6505;51.114;13.128;2023-02-28T06:01:38;8.30;49.70
12874;DHT22;6505;51.114;13.128;2023-02-28T06:04:10;8.30;49.80
12874;DHT22;6505;51.114;13.128;2023-02-28T06:06:56;8.30;49.70
12874;DHT22;6505;51.114;13.128;2023-02-28T06:09:25;8.20;49.60
12874;DHT22;6505;51.114;13.128;2023-02-28T06:11:54;8.30;49.70
12874;DHT22;6505;51.114;13.128;2023-02-28T06:14:22;8.20;49.60
12874;DHT22;6505;51.114;13.128;2023-02-28T06:16:50;8.20;49.50
12874;DHT22;6505;51.114;13.128;2023-02-28T06:19:20;8.20;49.50
12874;DHT22;6505;51.114;13.128;2023-02-28T06:21:50;8.20;49.50
12874;DHT22;6505;51.114;13.128;2023-02-28T06:24:20;8.20;49.70
12874;DHT22;6505;51.114;13.128;2023-02-28T06:26:48;8.20;49.70
12874;DHT22;6505;51.114;13.128;2023-02-28T06:29:16;8.20;50.30
12874;DHT22;6505;51.114;13.128;2023-02-28T06:31:45;8.20;49.60
12874;DHT22;6505;51.114;13.128;2023-02-28T06:34:13;8.20;49.80
12874;DHT22;6505;51.114;13.128;2023-02-28T06:36:43;8.20;49.70
12874;DHT22;6505;51.114;13.128;2023-02-28T06:39:11;8.10;49.60
12874;DHT22;6505;51.114;13.128;2023-02-28T06:41:39;8.20;49.80
12874;DHT22;6505;51.114;13.128;2023-02-28T06:44:20;8.10;49.60
12874;DHT22;6505;51.114;13.128;2023-02-28T06:46:49;8.20;49.90
12874;DHT22;6505;51.114;13.128;2023-02-28T06:49:17;8.20;50.50
12874;DHT22;6505;51.114;13.128;2023-02-28T06:51:46;8.20;49.90
12874;DHT22;6505;51.114;13.128;2023-02-28T06:54:14;8.20;50.10
12874;DHT22;6505;51.114;13.128;2023-02-28T06:56:42;8.20;49.90
12874;DHT22;6505;51.114;13.128;2023-02-28T06:59:10;8.20;49.80
12874;DHT22;6505;51.114;13.128;2023-02-28T07:01:38;8.20;49.90
12874;DHT22;6505;51.114;13.128;2023-02-28T07:04:06;8.20;49.80
12874;DHT22;6505;51.114;13.128;2023-02-28T07:06:35;8.20;50.00
12874;DHT22;6505;51.114;13.128;2023-02-28T07:09:04;8.20;49.90
12874;DHT22;6505;51.114;13.128;2023-02-28T07:11:32;8.20;50.00
12874;DHT22;6505;51.114;13.128;2023-02-28T07:14:00;8.20;49.90
12874;DHT22;6505;51.114;13.128;2023-02-28T07:16:28;8.20;49.90
12874;DHT22;6505;51.114;13.128;2023-02-28T07:18:56;8.20;50.00
12874;DHT22;6505;51.114;13.128;2023-02-28T07:21:24;8.20;50.00
12874;DHT22;6505;51.114;13.128;2023-02-28T07:23:52;8.20;50.10
12874;DHT22;6505;51.114;13.128;2023-02-28T07:26:22;8.20;50.10
12874;DHT22;6505;51.114;13.128;2023-02-28T07:28:50;8.20;50.10
12874;DHT22;6505;51.114;13.128;2023-02-28T07:31:18;8.20;50.10
12874;DHT22;6505;51.114;13.128;2023-02-28T07:33:46;8.20;50.20
12874;DHT22;6505;51.114;13.128;2023-02-28T07:36:16;8.30;50.30
12874;DHT22;6505;51.114;13.128;2023-02-28T07:38:47;8.30;50.30
12874;DHT22;6505;51.114;13.128;2023-02-28T07:41:17;8.30;50.40
12874;DHT22;6505;51.114;13.128;2023-02-28T07:43:48;8.20;50.30
12874;DHT22;6505;51.114;13.128;2023-02-28T07:46:17;8.30;50.30
12874;DHT22;6505;51.114;13.128;2023-02-28T07:48:47;8.30;50.20
12874;DHT22;6505;51.114;13.128;2023-02-28T07:51:15;8.30;49.90
12874;DHT22;6505;51.114;13.128;2023-02-28T07:53:43;8.30;50.00
12874;DHT22;6505;51.114;13.128;2023-02-28T07:56:11;8.30;49.80
12874;DHT22;6505;51.114;13.128;2023-02-28T07:58:39;8.30;49.70
12874;DHT22;6505;51.114;13.128;2023-02-28T08:01:09;8.30;49.60
12874;DHT22;6505;51.114;13.128;2023-02-28T08:03:39;8.30;49.80
12874;DHT22;6505;51.114;13.128;2023-02-28T08:06:16;8.30;49.70
12874;DHT22;6505;51.114;13.128;2023-02-28T08:08:45;8.30;49.50
12874;DHT22;6505;51.114;13.128;2023-02-28T08:11:14;8.30;49.40
12874;DHT22;6505;51.114;13.128;2023-02-28T08:13:43;8.30;49.10
12874;DHT22;6505;51.114;13.128;2023-02-28T08:16:13;8.30;49.00
12874;DHT22;6505;51.114;13.128;2023-02-28T08:18:44;8.30;49.00
12874;DHT22;6505;51.114;13.128;2023-02-28T08:21:12;8.30;49.10
12874;DHT22;6505;51.114;13.128;2023-02-28T08:23:40;8.30;49.10
12874;DHT22;6505;51.114;13.128;2023-02-28T08:26:08;8.30;48.90
12874;DHT22;6505;51.114;13.128;2023-02-28T08:28:36;8.40;48.80
12874;DHT22;6505;51.114;13.128;2023-02-28T08:31:07;8.40;49.20
12874;DHT22;6505;51.114;13.128;2023-02-28T08:33:38;8.40;49.50
12874;DHT22;6505;51.114;13.128;2023-02-28T08:36:08;8.40;49.60
12874;DHT22;6505;51.114;13.128;2023-02-28T08:38:37;8.50;49.60
12874;DHT22;6505;51.114;13.128;2023-02-28T08:41:07;8.50;49.60
12874;DHT22;6505;51.114;13.128;2023-02-28T08:43:37;8.50;49.40
12874;DHT22;6505;51.114;13.128;2023-02-28T08:46:07;8.60;49.80
12874;DHT22;6505;51.114;13.128;2023-02-28T08:48:35;8.60;49.50
12874;DHT22;6505;51.114;13.128;2023-02-28T08:51:13;8.60;49.10
12874;DHT22;6505;51.114;13.128;2023-02-28T08:53:42;8.70;49.20
12874;DHT22;6505;51.114;13.128;2023-02-28T08:56:13;8.70;48.70
12874;DHT22;6505;51.114;13.128;2023-02-28T08:58:43;8.70;48.70
12874;DHT22;6505;51.114;13.128;2023-02-28T09:01:13;8.70;48.70
12874;DHT22;6505;51.114;13.128;2023-02-28T09:03:43;8.70;48.70
12874;DHT22;6505;51.114;13.128;2023-02-28T09:06:14;8.80;49.10
12874;DHT22;6505;51.114;13.128;2023-02-28T09:08:44;8.80;48.50
12874;DHT22;6505;51.114;13.128;2023-02-28T09:11:12;8.80;48.20
12874;DHT22;6505;51.114;13.128;2023-02-28T09:13:41;8.80;48.40
12874;DHT22;6505;51.114;13.128;2023-02-28T09:16:11;8.80;48.20
12874;DHT22;6505;51.114;13.128;2023-02-28T09:18:41;8.80;48.20
12874;DHT22;6505;51.114;13.128;2023-02-28T09:21:13;8.80;48.20
12874;DHT22;6505;51.114;13.128;2023-02-28T09:23:46;8.80;48.00
12874;DHT22;6505;51.114;13.128;2023-02-28T09:26:16;8.80;47.60
12874;DHT22;6505;51.114;13.128;2023-02-28T09:28:46;8.80;47.40
12874;DHT22;6505;51.114;13.128;2023-02-28T09:31:14;8.90;47.20
12874;DHT22;6505;51.114;13.128;2023-02-28T09:33:48;8.80;46.80
12874;DHT22;6505;51.114;13.128;2023-02-28T09:36:18;8.80;47.00
12874;DHT22;6505;51.114;13.128;2023-02-28T09:38:59;8.80;47.00
12874;DHT22;6505;51.114;13.128;2023-02-28T09:41:36;8.80;47.20
12874;DHT22;6505;51.114;13.128;2023-02-28T09:44:18;8.80;47.60
12874;DHT22;6505;51.114;13.128;2023-02-28T09:46:55;8.80;47.40
12874;DHT22;6505;51.114;13.128;2023-02-28T09:49:33;8.80;47.00
12874;DHT22;6505;51.114;13.128;2023-02-28T09:52:10;8.80;46.90
12874;DHT22;6505;51.114;13.128;2023-02-28T09:54:41;8.80;46.80
12874;DHT22;6505;51.114;13.128;2023-02-28T09:57:16;8.80;46.70
12874;DHT22;6505;51.114;13.128;2023-02-28T10:00:06;8.80;45.40
12874;DHT22;6505;51.114;13.128;2023-02-28T10:02:54;8.80;45.80
12874;DHT22;6505;51.114;13.128;2023-02-28T10:05:33;8.80;45.90
12874;DHT22;6505;51.114;13.128;2023-02-28T10:08:12;8.70;44.90
12874;DHT22;6505;51.114;13.128;2023-02-28T10:10:44;8.70;45.40
12874;DHT22;6505;51.114;13.128;2023-02-28T10:13:21;8.70;45.70
12874;DHT22;6505;51.114;13.128;2023-02-28T10:15:58;8.70;45.70
12874;DHT22;6505;51.114;13.128;2023-02-28T10:18:33;8.70;44.00
12874;DHT22;6505;51.114;13.128;2023-02-28T10:21:17;8.70;44.00
12874;DHT22;6505;51.114;13.128;2023-02-28T10:23:53;8.70;44.80
12874;DHT22;6505;51.114;13.128;2023-02-28T10:26:31;8.70;44.60
12874;DHT22;6505;51.114;13.128;2023-02-28T10:29:00;8.70;44.00
12874;DHT22;6505;51.114;13.128;2023-02-28T10:31:29;8.70;43.70
12874;DHT22;6505;51.114;13.128;2023-02-28T10:33:57;8.60;43.90
12874;DHT22;6505;51.114;13.128;2023-02-28T10:36:25;8.70;43.80
12874;DHT22;6505;51.114;13.128;2023-02-28T10:38:56;8.60;42.60
12874;DHT22;6505;51.114;13.128;2023-02-28T10:41:28;8.70;42.80
12874;DHT22;6505;51.114;13.128;2023-02-28T10:44:17;8.70;43.80
12874;DHT22;6505;51.114;13.128;2023-02-28T10:46:48;8.60;44.10
12874;DHT22;6505;51.114;13.128;2023-02-28T10:49:21;8.70;43.80
12874;DHT22;6505;51.114;13.128;2023-02-28T10:51:52;8.70;44.00
12874;DHT22;6505;51.114;13.128;2023-02-28T10:54:27;8.70;43.20
12874;DHT22;6505;51.114;13.128;2023-02-28T10:57:15;8.70;42.80
12874;DHT22;6505;51.114;13.128;2023-02-28T10:59:46;8.70;43.20
12874;DHT22;6505;51.114;13.128;2023-02-28T11:02:35;8.70;43.30
12874;DHT22;6505;51.114;13.128;2023-02-28T11:05:27;8.80;43.40
12874;DHT22;6505;51.114;13.128;2023-02-28T11:08:05;8.70;42.40
12874;DHT22;6505;51.114;13.128;2023-02-28T11:10:44;8.70;42.30
12874;DHT22;6505;51.114;13.128;2023-02-28T11:13:17;8.70;43.00
12874;DHT22;6505;51.114;13.128;2023-02-28T11:15:51;8.70;43.20
12874;DHT22;6505;51.114;13.128;2023-02-28T11:18:23;8.70;43.40
12874;DHT22;6505;51.114;13.128;2023-02-28T11:20:58;8.80;43.30
12874;DHT22;6505;51.114;13.128;2023-02-28T11:23:31;8.70;43.30
12874;DHT22;6505;51.114;13.128;2023-02-28T11:26:05;8.80;43.10
12874;DHT22;6505;51.114;13.128;2023-02-28T11:28:39;8.70;42.80
12874;DHT22;6505;51.114;13.128;2023-02-28T11:31:17;8.80;42.70
12874;DHT22;6505;51.114;13.128;2023-02-28T11:33:49;8.80;43.20
12874;DHT22;6505;51.114;13.128;2023-02-28T11:36:21;8.80;43.30
12874;DHT22;6505;51.114;13.128;2023-02-28T11:38:53;8.80;42.00
12874;DHT22;6505;51.114;13.128;2023-02-28T11:41:34;8.90;42.80
12874;DHT22;6505;51.114;13.128;2023-02-28T11:44:33;8.80;42.40
12874;DHT22;6505;51.114;13.128;2023-02-28T11:47:15;8.90;42.60
12874;DHT22;6505;51.114;13.128;2023-02-28T11:49:57;8.80;42.10
12874;DHT22;6505;51.114;13.128;2023-02-28T11:52:42;8.80;41.60
12874;DHT22;6505;51.114;13.128;2023-02-28T11:55:20;8.90;42.10
12874;DHT22;6505;51.114;13.128;2023-02-28T11:58:05;8.90;42.40
12874;DHT22;6505;51.114;13.128;2023-02-28T12:01:07;8.90;42.60
12874;DHT22;6505;51.114;13.128;2023-02-28T12:03:45;8.90;43.00
12874;DHT22;6505;51.114;13.128;2023-02-28T12:06:30;8.90;43.10
12874;DHT22;6505;51.114;13.128;2023-02-28T12:09:08;8.90;42.70
12874;DHT22;6505;51.114;13.128;2023-02-28T12:11:52;8.90;43.00
12874;DHT22;6505;51.114;13.128;2023-02-28T12:14:39;8.90;43.10
12874;DHT22;6505;51.114;13.128;2023-02-28T12:17:42;9.00;42.80
12874;DHT22;6505;51.114;13.128;2023-02-28T12:20:24;8.90;41.60
12874;DHT22;6505;51.114;13.128;2023-02-28T12:23:06;9.00;41.80
12874;DHT22;6505;51.114;13.128;2023-02-28T12:25:55;9.00;42.30
12874;DHT22;6505;51.114;13.128;2023-02-28T12:28:33;9.00;43.00
12874;DHT22;6505;51.114;13.128;2023-02-28T12:31:08;9.00;43.30
12874;DHT22;6505;51.114;13.128;2023-02-28T12:33:43;9.00;43.00
12874;DHT22;6505;51.114;13.128;2023-02-28T12:36:18;9.10;42.80
12874;DHT22;6505;51.114;13.128;2023-02-28T12:38:53;9.10;42.70
12874;DHT22;6505;51.114;13.128;2023-02-28T12:41:31;9.10;42.50
12874;DHT22;6505;51.114;13.128;2023-02-28T12:44:08;9.10;42.50
12874;DHT22;6505;51.114;13.128;2023-02-28T12:46:45;9.10;42.50
12874;DHT22;6505;51.114;13.128;2023-02-28T12:49:19;9.10;42.40
12874;DHT22;6505;51.114;13.128;2023-02-28T12:51:51;9.10;42.10
12874;DHT22;6505;51.114;13.128;2023-02-28T12:54:24;9.10;42.40
12874;DHT22;6505;51.114;13.128;2023-02-28T12:57:00;9.10;42.90
12874;DHT22;6505;51.114;13.128;2023-02-28T12:59:39;9.10;42.80
12874;DHT22;6505;51.114;13.128;2023-02-28T13:02:33;9.10;42.90
12874;DHT22;6505;51.114;13.128;2023-02-28T13:05:49;9.10;42.90
12874;DHT22;6505;51.114;13.128;2023-02-28T13:09:08;9.10;42.50
12874;DHT22;6505;51.114;13.128;2023-02-28T13:11:42;9.10;42.00
12874;DHT22;6505;51.114;13.128;2023-02-28T13:14:23;9.10;42.40
12874;DHT22;6505;51.114;13.128;2023-02-28T13:17:00;9.10;42.40
12874;DHT22;6505;51.114;13.128;2023-02-28T13:19:34;9.10;42.80
12874;DHT22;6505;51.114;13.128;2023-02-28T13:22:04;9.20;43.00
12874;DHT22;6505;51.114;13.128;2023-02-28T13:24:48;9.10;42.60
12874;DHT22;6505;51.114;13.128;2023-02-28T13:27:34;9.20;43.10
12874;DHT22;6505;51.114;13.128;2023-02-28T13:33:31;9.20;42.50
12874;DHT22;6505;51.114;13.128;2023-02-28T13:36:08;9.20;42.60
12874;DHT22;6505;51.114;13.128;2023-02-28T13:38:40;9.10;42.80
12874;DHT22;6505;51.114;13.128;2023-02-28T13:41:41;9.10;43.10
12874;DHT22;6505;51.114;13.128;2023-02-28T13:44:11;9.10;42.60
12874;DHT22;6505;51.114;13.128;2023-02-28T13:47:21;9.10;42.50
12874;DHT22;6505;51.114;13.128;2023-02-28T13:49:52;9.10;42.70
12874;DHT22;6505;51.114;13.128;2023-02-28T13:52:23;9.10;42.90
12874;DHT22;6505;51.114;13.128;2023-02-28T13:55:11;9.10;44.10
12874;DHT22;6505;51.114;13.128;2023-02-28T13:58:18;9.20;43.70
12874;DHT22;6505;51.114;13.128;2023-02-28T14:01:08;9.20;43.50
12874;DHT22;6505;51.114;13.128;2023-02-28T14:04:14;9.20;42.40
12874;DHT22;6505;51.114;13.128;2023-02-28T14:07:02;9.20;42.10
12874;DHT22;6505;51.114;13.128;2023-02-28T14:09:33;9.20;42.60
12874;DHT22;6505;51.114;13.128;2023-02-28T14:15:40;9.20;42.80
12874;DHT22;6505;51.114;13.128;2023-02-28T14:18:25;9.20;43.30
12874;DHT22;6505;51.114;13.128;2023-02-28T14:21:02;9.30;42.50
12874;DHT22;6505;51.114;13.128;2023-02-28T14:23:57;9.20;42.70
12874;DHT22;6505;51.114;13.128;2023-02-28T14:26:58;9.20;42.90
12874;DHT22;6505;51.114;13.128;2023-02-28T14:33:18;9.30;42.70
12874;DHT22;6505;51.114;13.128;2023-02-28T14:36:10;9.30;43.00
12874;DHT22;6505;51.114;13.128;2023-02-28T14:38:45;9.30;42.60
12874;DHT22;6505;51.114;13.128;2023-02-28T14:41:21;9.30;41.90
12874;DHT22;6505;51.114;13.128;2023-02-28T14:43:54;9.30;42.10
12874;DHT22;6505;51.114;13.128;2023-02-28T14:46:26;9.30;42.00
12874;DHT22;6505;51.114;13.128;2023-02-28T14:48:58;9.30;42.60
12874;DHT22;6505;51.114;13.128;2023-02-28T14:51:26;9.30;42.50
12874;DHT22;6505;51.114;13.128;2023-02-28T14:53:58;9.30;42.20
12874;DHT22;6505;51.114;13.128;2023-02-28T14:56:32;9.30;42.30
12874;DHT22;6505;51.114;13.128;2023-02-28T14:59:05;9.30;42.60
12874;DHT22;6505;51.114;13.128;2023-02-28T15:01:51;9.30;42.70
12874;DHT22;6505;51.114;13.128;2023-02-28T15:04:25;9.30;42.40
12874;DHT22;6505;51.114;13.128;2023-02-28T15:07:07;9.40;43.00
12874;DHT22;6505;51.114;13.128;2023-02-28T15:09:36;9.30;42.90
12874;DHT22;6505;51.114;13.128;2023-02-28T15:12:05;9.30;42.40
12874;DHT22;6505;51.114;13.128;2023-02-28T15:14:36;9.30;42.60
12874;DHT22;6505;51.114;13.128;2023-02-28T15:17:11;9.30;42.60
12874;DHT22;6505;51.114;13.128;2023-02-28T15:19:49;9.30;42.30
12874;DHT22;6505;51.114;13.128;2023-02-28T15:22:26;9.30;42.20
12874;DHT22;6505;51.114;13.128;2023-02-28T15:24:58;9.30;42.60
12874;DHT22;6505;51.114;13.128;2023-02-28T15:27:29;9.30;42.60
12874;DHT22;6505;51.114;13.128;2023-02-28T15:30:05;9.40;42.60
12874;DHT22;6505;51.114;13.128;2023-02-28T15:32:37;9.40;42.40
12874;DHT22;6505;51.114;13.128;2023-02-28T15:35:25;9.40;42.80
12874;DHT22;6505;51.114;13.128;2023-02-28T15:37:57;9.40;42.60
12874;DHT22;6505;51.114;13.128;2023-02-28T15:40:30;9.30;42.90
12874;DHT22;6505;51.114;13.128;2023-02-28T15:43:04;9.40;43.80
12874;DHT22;6505;51.114;13.128;2023-02-28T15:45:38;9.40;43.20
12874;DHT22;6505;51.114;13.128;2023-02-28T15:48:16;9.40;43.10
12874;DHT22;6505;51.114;13.128;2023-02-28T15:50:49;9.40;42.70
12874;DHT22;6505;51.114;13.128;2023-02-28T15:53:23;9.40;42.70
12874;DHT22;6505;51.114;13.128;2023-02-28T15:55:58;9.50;43.00
12874;DHT22;6505;51.114;13.128;2023-02-28T15:58:30;9.40;42.80
12874;DHT22;6505;51.114;13.128;2023-02-28T16:01:08;9.40;42.60
12874;DHT22;6505;51.114;13.128;2023-02-28T16:03:48;9.40;43.40
12874;DHT22;6505;51.114;13.128;2023-02-28T16:06:41;9.40;43.50
12874;DHT22;6505;51.114;13.128;2023-02-28T16:09:13;9.40;43.60
12874;DHT22;6505;51.114;13.128;2023-02-28T16:11:44;9.40;43.80
12874;DHT22;6505;51.114;13.128;2023-02-28T16:14:17;9.40;43.70
12874;DHT22;6505;51.114;13.128;2023-02-28T16:16:52;9.50;43.90
12874;DHT22;6505;51.114;13.128;2023-02-28T16:19:22;9.50;43.90
12874;DHT22;6505;51.114;13.128;2023-02-28T16:21:50;9.40;43.80
12874;DHT22;6505;51.114;13.128;2023-02-28T16:24:18;9.50;44.00
12874;DHT22;6505;51.114;13.128;2023-02-28T16:26:48;9.40;43.80
12874;DHT22;6505;51.114;13.128;2023-02-28T16:29:23;9.50;44.00
12874;DHT22;6505;51.114;13.128;2023-02-28T16:31:55;9.50;44.10
12874;DHT22;6505;51.114;13.128;2023-02-28T16:34:24;9.50;44.00
12874;DHT22;6505;51.114;13.128;2023-02-28T16:36:52;9.50;44.00
12874;DHT22;6505;51.114;13.128;2023-02-28T16:39:20;9.50;44.10
12874;DHT22;6505;51.114;13.128;2023-02-28T16:41:50;9.60;44.20
12874;DHT22;6505;51.114;13.128;2023-02-28T16:44:26;9.60;44.30